sensor_id;sensor_type;location;lat;lon;timestamp;P1;durP1;ratioP1;P2;durP2;ratioP2
39740;SDS011;25426;53.478;10.190;2023-04-01T00:02:29;10.13;;;6.65;;
39740;SDS011;25426;53.478;10.190;2023-04-01T00:05:00;11.95;;;6.22;;
39740;SDS011;25426;53.478;10.190;2023-04-01T00:07:31;9.57;;;6.25;;
39740;SDS011;25426;53.478;10.190;2023-04-01T00:10:03;15.43;;;7.18;;
39740;SDS011;25426;53.478;10.190;2023-04-01T00:12:38;13.30;;;7.03;;
39740;SDS011;25426;53.478;10.190;2023-04-01T00:15:11;9.00;;;6.55;;
39740;SDS011;25426;53.478;10.190;2023-04-01T00:17:42;11.07;;;6.35;;
39740;SDS011;25426;53.478;10.190;2023-04-01T00:20:13;10.77;;;6.35;;
39740;SDS011;25426;53.478;10.190;2023-04-01T00:22:44;13.10;;;5.95;;
39740;SDS011;25426;53.478;10.190;2023-04-01T00:25:15;9.63;;;6.22;;
39740;SDS011;25426;53.478;10.190;2023-04-01T00:27:46;9.95;;;6.13;;
39740;SDS011;25426;53.478;10.190;2023-04-01T00:30:17;7.78;;;6.00;;
39740;SDS011;25426;53.478;10.190;2023-04-01T00:32:51;12.05;;;5.78;;
39740;SDS011;25426;53.478;10.190;2023-04-01T00:35:23;9.15;;;5.68;;
39740;SDS011;25426;53.478;10.190;2023-04-01T00:37:54;11.40;;;6.68;;
39740;SDS011;25426;53.478;10.190;2023-04-01T00:43:00;10.50;;;6.70;;
39740;SDS011;25426;53.478;10.190;2023-04-01T00:45:35;10.63;;;6.10;;
39740;SDS011;25426;53.478;10.190;2023-04-01T00:48:12;9.35;;;6.30;;
39740;SDS011;25426;53.478;10.190;2023-04-01T00:50:52;11.95;;;6.07;;
39740;SDS011;25426;53.478;10.190;2023-04-01T00:53:30;6.47;;;5.00;;
39740;SDS011;25426;53.478;10.190;2023-04-01T00:56:10;12.75;;;5.38;;
39740;SDS011;25426;53.478;10.190;2023-04-01T00:59:03;12.60;;;6.13;;
39740;SDS011;25426;53.478;10.190;2023-04-01T01:01:40;15.75;;;5.40;;
39740;SDS011;25426;53.478;10.190;2023-04-01T01:04:22;9.45;;;4.95;;
39740;SDS011;25426;53.478;10.190;2023-04-01T01:07:06;13.77;;;5.53;;
39740;SDS011;25426;53.478;10.190;2023-04-01T01:15:45;11.88;;;5.72;;
39740;SDS011;25426;53.478;10.190;2023-04-01T01:18:42;14.25;;;6.63;;
39740;SDS011;25426;53.478;10.190;2023-04-01T01:21:47;13.32;;;6.53;;
39740;SDS011;25426;53.478;10.190;2023-04-01T01:35:25;13.43;;;6.00;;
39740;SDS011;25426;53.478;10.190;2023-04-01T01:38:22;11.93;;;5.93;;
39740;SDS011;25426;53.478;10.190;2023-04-01T01:41:05;10.70;;;6.28;;
39740;SDS011;25426;53.478;10.190;2023-04-01T01:43:42;11.52;;;6.10;;
39740;SDS011;25426;53.478;10.190;2023-04-01T01:46:19;11.68;;;5.93;;
39740;SDS011;25426;53.478;10.190;2023-04-01T01:48:53;12.13;;;6.13;;
39740;SDS011;25426;53.478;10.190;2023-04-01T01:51:26;17.52;;;6.40;;
39740;SDS011;25426;53.478;10.190;2023-04-01T01:53:58;11.40;;;5.47;;
39740;SDS011;25426;53.478;10.190;2023-04-01T01:56:29;9.90;;;5.28;;
39740;SDS011;25426;53.478;10.190;2023-04-01T01:59:02;13.95;;;5.63;;
39740;SDS011;25426;53.478;10.190;2023-04-01T02:01:38;10.63;;;5.70;;
39740;SDS011;25426;53.478;10.190;2023-04-01T02:04:16;11.45;;;5.80;;
39740;SDS011;25426;53.478;10.190;2023-04-01T02:06:56;11.55;;;5.55;;
39740;SDS011;25426;53.478;10.190;2023-04-01T02:09:35;10.02;;;5.13;;
39740;SDS011;25426;53.478;10.190;2023-04-01T02:12:07;13.18;;;6.18;;
39740;SDS011;25426;53.478;10.190;2023-04-01T02:14:55;10.15;;;5.00;;
39740;SDS011;25426;53.478;10.190;2023-04-01T02:17:39;9.65;;;4.88;;
39740;SDS011;25426;53.478;10.190;2023-04-01T02:20:15;9.88;;;5.38;;
39740;SDS011;25426;53.478;10.190;2023-04-01T02:22:53;12.40;;;5.43;;
39740;SDS011;25426;53.478;10.190;2023-04-01T02:25:28;8.15;;;4.47;;
39740;SDS011;25426;53.478;10.190;2023-04-01T02:28:05;8.90;;;5.10;;
39740;SDS011;25426;53.478;10.190;2023-04-01T02:30:38;12.23;;;5.15;;
39740;SDS011;25426;53.478;10.190;2023-04-01T02:33:10;12.38;;;6.10;;
39740;SDS011;25426;53.478;10.190;2023-04-01T02:35:42;9.65;;;5.57;;
39740;SDS011;25426;53.478;10.190;2023-04-01T02:38:13;10.65;;;5.10;;
39740;SDS011;25426;53.478;10.190;2023-04-01T02:40:47;9.23;;;5.28;;
39740;SDS011;25426;53.478;10.190;2023-04-01T02:43:21;11.52;;;5.30;;
39740;SDS011;25426;53.478;10.190;2023-04-01T02:45:52;11.55;;;4.45;;
39740;SDS011;25426;53.478;10.190;2023-04-01T02:48:23;11.25;;;5.47;;
39740;SDS011;25426;53.478;10.190;2023-04-01T02:50:54;5.50;;;4.47;;
39740;SDS011;25426;53.478;10.190;2023-04-01T02:53:25;11.75;;;4.75;;
39740;SDS011;25426;53.478;10.190;2023-04-01T02:55:56;7.50;;;4.53;;
39740;SDS011;25426;53.478;10.190;2023-04-01T02:58:27;10.80;;;4.65;;
39740;SDS011;25426;53.478;10.190;2023-04-01T03:00:58;11.02;;;4.95;;
39740;SDS011;25426;53.478;10.190;2023-04-01T03:03:29;11.50;;;5.07;;
39740;SDS011;25426;53.478;10.190;2023-04-01T03:06:05;10.90;;;4.97;;
39740;SDS011;25426;53.478;10.190;2023-04-01T03:08:42;7.10;;;5.20;;
39740;SDS011;25426;53.478;10.190;2023-04-01T03:11:14;11.05;;;4.82;;
39740;SDS011;25426;53.478;10.190;2023-04-01T03:13:45;12.07;;;4.78;;
39740;SDS011;25426;53.478;10.190;2023-04-01T03:16:16;7.05;;;4.95;;
39740;SDS011;25426;53.478;10.190;2023-04-01T03:18:47;10.98;;;6.57;;
39740;SDS011;25426;53.478;10.190;2023-04-01T03:21:22;11.20;;;5.65;;
39740;SDS011;25426;53.478;10.190;2023-04-01T03:23:54;9.73;;;4.97;;
39740;SDS011;25426;53.478;10.190;2023-04-01T03:26:25;15.30;;;6.15;;
39740;SDS011;25426;53.478;10.190;2023-04-01T03:28:59;10.43;;;5.45;;
39740;SDS011;25426;53.478;10.190;2023-04-01T03:31:30;10.05;;;5.80;;
39740;SDS011;25426;53.478;10.190;2023-04-01T03:34:01;10.75;;;5.80;;
39740;SDS011;25426;53.478;10.190;2023-04-01T03:36:32;9.13;;;6.40;;
39740;SDS011;25426;53.478;10.190;2023-04-01T03:39:04;10.32;;;5.55;;
39740;SDS011;25426;53.478;10.190;2023-04-01T03:41:43;9.60;;;5.22;;
39740;SDS011;25426;53.478;10.190;2023-04-01T03:44:17;13.82;;;6.50;;
39740;SDS011;25426;53.478;10.190;2023-04-01T03:46:51;13.35;;;6.70;;
39740;SDS011;25426;53.478;10.190;2023-04-01T03:49:22;11.73;;;6.20;;
39740;SDS011;25426;53.478;10.190;2023-04-01T03:51:53;10.48;;;6.28;;
39740;SDS011;25426;53.478;10.190;2023-04-01T03:54:24;10.68;;;6.45;;
39740;SDS011;25426;53.478;10.190;2023-04-01T03:56:55;11.05;;;6.30;;
39740;SDS011;25426;53.478;10.190;2023-04-01T03:59:28;14.57;;;6.55;;
39740;SDS011;25426;53.478;10.190;2023-04-01T04:01:59;15.27;;;6.85;;
39740;SDS011;25426;53.478;10.190;2023-04-01T04:04:30;12.02;;;6.50;;
39740;SDS011;25426;53.478;10.190;2023-04-01T04:07:02;9.90;;;6.40;;
39740;SDS011;25426;53.478;10.190;2023-04-01T04:09:40;11.52;;;6.65;;
39740;SDS011;25426;53.478;10.190;2023-04-01T04:12:11;13.10;;;6.80;;
39740;SDS011;25426;53.478;10.190;2023-04-01T04:14:43;10.20;;;7.13;;
39740;SDS011;25426;53.478;10.190;2023-04-01T04:17:14;13.60;;;7.82;;
39740;SDS011;25426;53.478;10.190;2023-04-01T04:19:47;11.50;;;6.55;;
39740;SDS011;25426;53.478;10.190;2023-04-01T04:22:18;11.32;;;6.75;;
39740;SDS011;25426;53.478;10.190;2023-04-01T04:24:49;10.75;;;6.53;;
39740;SDS011;25426;53.478;10.190;2023-04-01T04:27:21;12.75;;;7.40;;
39740;SDS011;25426;53.478;10.190;2023-04-01T04:30:02;10.57;;;7.50;;
39740;SDS011;25426;53.478;10.190;2023-04-01T04:32:36;10.55;;;7.72;;
39740;SDS011;25426;53.478;10.190;2023-04-01T04:35:07;12.95;;;7.43;;
39740;SDS011;25426;53.478;10.190;2023-04-01T04:37:39;11.63;;;7.38;;
39740;SDS011;25426;53.478;10.190;2023-04-01T04:40:11;15.35;;;7.22;;
39740;SDS011;25426;53.478;10.190;2023-04-01T04:42:42;9.48;;;6.57;;
39740;SDS011;25426;53.478;10.190;2023-04-01T04:45:17;10.43;;;7.72;;
39740;SDS011;25426;53.478;10.190;2023-04-01T04:47:57;10.27;;;6.88;;
39740;SDS011;25426;53.478;10.190;2023-04-01T04:50:28;13.93;;;7.53;;
39740;SDS011;25426;53.478;10.190;2023-04-01T04:52:59;10.52;;;7.03;;
39740;SDS011;25426;53.478;10.190;2023-04-01T04:55:30;13.13;;;7.30;;
39740;SDS011;25426;53.478;10.190;2023-04-01T04:58:19;10.07;;;6.72;;
39740;SDS011;25426;53.478;10.190;2023-04-01T05:00:50;10.75;;;7.05;;
39740;SDS011;25426;53.478;10.190;2023-04-01T05:03:26;11.20;;;6.70;;
39740;SDS011;25426;53.478;10.190;2023-04-01T05:05:57;12.02;;;7.00;;
39740;SDS011;25426;53.478;10.190;2023-04-01T05:08:28;10.30;;;7.30;;
39740;SDS011;25426;53.478;10.190;2023-04-01T05:11:00;12.95;;;7.07;;
39740;SDS011;25426;53.478;10.190;2023-04-01T05:13:33;12.95;;;6.80;;
39740;SDS011;25426;53.478;10.190;2023-04-01T05:16:12;9.00;;;6.47;;
39740;SDS011;25426;53.478;10.190;2023-04-01T05:18:47;11.77;;;6.97;;
39740;SDS011;25426;53.478;10.190;2023-04-01T05:21:18;8.05;;;5.78;;
39740;SDS011;25426;53.478;10.190;2023-04-01T05:23:50;11.40;;;7.40;;
39740;SDS011;25426;53.478;10.190;2023-04-01T05:26:21;10.60;;;6.88;;
39740;SDS011;25426;53.478;10.190;2023-04-01T05:28:52;8.32;;;6.47;;
39740;SDS011;25426;53.478;10.190;2023-04-01T05:31:24;11.68;;;6.03;;
39740;SDS011;25426;53.478;10.190;2023-04-01T05:33:55;9.20;;;6.43;;
39740;SDS011;25426;53.478;10.190;2023-04-01T05:36:26;10.90;;;6.78;;
39740;SDS011;25426;53.478;10.190;2023-04-01T05:38:58;10.13;;;6.57;;
39740;SDS011;25426;53.478;10.190;2023-04-01T05:41:31;12.68;;;7.13;;
39740;SDS011;25426;53.478;10.190;2023-04-01T05:44:02;10.07;;;6.45;;
39740;SDS011;25426;53.478;10.190;2023-04-01T05:46:45;9.95;;;7.25;;
39740;SDS011;25426;53.478;10.190;2023-04-01T05:49:25;12.90;;;7.22;;
39740;SDS011;25426;53.478;10.190;2023-04-01T05:51:59;11.50;;;7.70;;
39740;SDS011;25426;53.478;10.190;2023-04-01T05:54:31;10.98;;;5.18;;
39740;SDS011;25426;53.478;10.190;2023-04-01T05:57:02;2.28;;;1.88;;
39740;SDS011;25426;53.478;10.190;2023-04-01T05:59:33;1.70;;;1.20;;
39740;SDS011;25426;53.478;10.190;2023-04-01T06:02:05;1.30;;;1.00;;
39740;SDS011;25426;53.478;10.190;2023-04-01T06:04:39;2.20;;;1.15;;
39740;SDS011;25426;53.478;10.190;2023-04-01T06:07:15;1.92;;;1.13;;
39740;SDS011;25426;53.478;10.190;2023-04-01T06:09:48;0.82;;;0.80;;
39740;SDS011;25426;53.478;10.190;2023-04-01T06:12:39;1.00;;;0.90;;
39740;SDS011;25426;53.478;10.190;2023-04-01T06:16:32;1.08;;;0.98;;
39740;SDS011;25426;53.478;10.190;2023-04-01T06:29:32;1.13;;;1.02;;
39740;SDS011;25426;53.478;10.190;2023-04-01T06:41:43;1.50;;;1.30;;
39740;SDS011;25426;53.478;10.190;2023-04-01T06:44:42;2.53;;;1.10;;
39740;SDS011;25426;53.478;10.190;2023-04-01T06:58:48;2.15;;;1.30;;
39740;SDS011;25426;53.478;10.190;2023-04-01T07:01:41;1.63;;;1.52;;
39740;SDS011;25426;53.478;10.190;2023-04-01T07:04:26;2.15;;;1.65;;
39740;SDS011;25426;53.478;10.190;2023-04-01T07:07:14;1.50;;;1.40;;
39740;SDS011;25426;53.478;10.190;2023-04-01T07:10:05;1.30;;;1.20;;
39740;SDS011;25426;53.478;10.190;2023-04-01T07:13:32;1.33;;;1.20;;
39740;SDS011;25426;53.478;10.190;2023-04-01T07:16:29;2.35;;;1.33;;
39740;SDS011;25426;53.478;10.190;2023-04-01T07:19:22;1.35;;;1.23;;
39740;SDS011;25426;53.478;10.190;2023-04-01T07:22:46;2.20;;;1.42;;
39740;SDS011;25426;53.478;10.190;2023-04-01T07:25:39;1.27;;;1.17;;
39740;SDS011;25426;53.478;10.190;2023-04-01T07:28:44;1.27;;;1.00;;
39740;SDS011;25426;53.478;10.190;2023-04-01T07:31:42;1.40;;;1.10;;
39740;SDS011;25426;53.478;10.190;2023-04-01T07:40:51;2.55;;;2.30;;
39740;SDS011;25426;53.478;10.190;2023-04-01T07:44:08;12.27;;;10.98;;
39740;SDS011;25426;53.478;10.190;2023-04-01T07:47:31;9.05;;;7.80;;
39740;SDS011;25426;53.478;10.190;2023-04-01T07:50:26;3.08;;;2.78;;
39740;SDS011;25426;53.478;10.190;2023-04-01T07:55:53;1.40;;;1.30;;
39740;SDS011;25426;53.478;10.190;2023-04-01T08:02:25;1.05;;;1.02;;
39740;SDS011;25426;53.478;10.190;2023-04-01T08:05:33;2.33;;;2.08;;
39740;SDS011;25426;53.478;10.190;2023-04-01T08:08:41;2.33;;;1.92;;
39740;SDS011;25426;53.478;10.190;2023-04-01T08:15:48;4.25;;;2.60;;
39740;SDS011;25426;53.478;10.190;2023-04-01T08:21:41;2.20;;;1.95;;
39740;SDS011;25426;53.478;10.190;2023-04-01T08:24:26;2.95;;;1.23;;
39740;SDS011;25426;53.478;10.190;2023-04-01T08:30:50;2.20;;;0.70;;
39740;SDS011;25426;53.478;10.190;2023-04-01T08:33:29;1.10;;;1.00;;
39740;SDS011;25426;53.478;10.190;2023-04-01T08:36:20;1.20;;;0.80;;
39740;SDS011;25426;53.478;10.190;2023-04-01T08:45:15;0.90;;;0.77;;
39740;SDS011;25426;53.478;10.190;2023-04-01T09:05:16;2.08;;;1.00;;
39740;SDS011;25426;53.478;10.190;2023-04-01T09:11:59;0.80;;;0.80;;
39740;SDS011;25426;53.478;10.190;2023-04-01T09:23:43;1.23;;;1.05;;
39740;SDS011;25426;53.478;10.190;2023-04-01T09:26:34;1.17;;;0.98;;
39740;SDS011;25426;53.478;10.190;2023-04-01T09:36:38;1.13;;;1.05;;
39740;SDS011;25426;53.478;10.190;2023-04-01T10:19:03;0.75;;;0.73;;
39740;SDS011;25426;53.478;10.190;2023-04-01T10:35:57;0.80;;;0.80;;
39740;SDS011;25426;53.478;10.190;2023-04-01T10:39:32;3.50;;;1.45;;
39740;SDS011;25426;53.478;10.190;2023-04-01T10:46:21;1.15;;;1.05;;
39740;SDS011;25426;53.478;10.190;2023-04-01T10:56:34;4.55;;;2.35;;
39740;SDS011;25426;53.478;10.190;2023-04-01T11:07:03;1.77;;;1.48;;
39740;SDS011;25426;53.478;10.190;2023-04-01T12:08:40;3.10;;;2.35;;
39740;SDS011;25426;53.478;10.190;2023-04-01T12:18:14;2.60;;;2.40;;
39740;SDS011;25426;53.478;10.190;2023-04-01T12:21:16;3.38;;;2.72;;
39740;SDS011;25426;53.478;10.190;2023-04-01T12:40:28;2.75;;;2.55;;
39740;SDS011;25426;53.478;10.190;2023-04-01T12:46:38;4.93;;;3.10;;
39740;SDS011;25426;53.478;10.190;2023-04-01T12:53:31;3.80;;;2.90;;
39740;SDS011;25426;53.478;10.190;2023-04-01T12:59:53;5.82;;;3.40;;
39740;SDS011;25426;53.478;10.190;2023-04-01T13:06:09;3.97;;;3.33;;
39740;SDS011;25426;53.478;10.190;2023-04-01T13:15:40;4.35;;;2.90;;
39740;SDS011;25426;53.478;10.190;2023-04-01T13:22:09;5.05;;;3.22;;
39740;SDS011;25426;53.478;10.190;2023-04-01T13:25:35;6.90;;;3.10;;
39740;SDS011;25426;53.478;10.190;2023-04-01T13:28:50;4.57;;;3.03;;
39740;SDS011;25426;53.478;10.190;2023-04-01T13:35:22;3.67;;;2.97;;
39740;SDS011;25426;53.478;10.190;2023-04-01T13:39:15;3.35;;;2.53;;
39740;SDS011;25426;53.478;10.190;2023-04-01T13:42:21;5.38;;;3.20;;
39740;SDS011;25426;53.478;10.190;2023-04-01T13:45:19;9.38;;;6.90;;
39740;SDS011;25426;53.478;10.190;2023-04-01T13:48:00;8.90;;;5.15;;
39740;SDS011;25426;53.478;10.190;2023-04-01T13:54:42;7.68;;;5.45;;
39740;SDS011;25426;53.478;10.190;2023-04-01T14:01:42;5.20;;;3.85;;
39740;SDS011;25426;53.478;10.190;2023-04-01T14:04:43;9.25;;;6.35;;
39740;SDS011;25426;53.478;10.190;2023-04-01T14:07:50;5.40;;;3.63;;
39740;SDS011;25426;53.478;10.190;2023-04-01T14:17:21;7.10;;;4.40;;
39740;SDS011;25426;53.478;10.190;2023-04-01T14:20:25;4.63;;;3.85;;
39740;SDS011;25426;53.478;10.190;2023-04-01T14:26:35;7.78;;;4.07;;
39740;SDS011;25426;53.478;10.190;2023-04-01T14:36:14;7.15;;;4.60;;
39740;SDS011;25426;53.478;10.190;2023-04-01T14:46:31;4.35;;;3.47;;
39740;SDS011;25426;53.478;10.190;2023-04-01T14:49:47;6.65;;;4.00;;
39740;SDS011;25426;53.478;10.190;2023-04-01T14:55:02;6.90;;;4.15;;
39740;SDS011;25426;53.478;10.190;2023-04-01T14:58:14;4.60;;;3.30;;
39740;SDS011;25426;53.478;10.190;2023-04-01T15:00:54;4.65;;;3.75;;
39740;SDS011;25426;53.478;10.190;2023-04-01T15:10:42;7.57;;;4.80;;
39740;SDS011;25426;53.478;10.190;2023-04-01T15:26:08;5.72;;;4.43;;
39740;SDS011;25426;53.478;10.190;2023-04-01T15:39:09;5.95;;;4.10;;
39740;SDS011;25426;53.478;10.190;2023-04-01T15:49:25;8.05;;;5.15;;
39740;SDS011;25426;53.478;10.190;2023-04-01T15:52:23;7.43;;;4.50;;
39740;SDS011;25426;53.478;10.190;2023-04-01T16:10:55;11.15;;;5.95;;
39740;SDS011;25426;53.478;10.190;2023-04-01T16:19:49;7.93;;;4.93;;
39740;SDS011;25426;53.478;10.190;2023-04-01T16:26:08;8.65;;;4.82;;
39740;SDS011;25426;53.478;10.190;2023-04-01T16:29:35;8.00;;;5.07;;
39740;SDS011;25426;53.478;10.190;2023-04-01T16:32:51;9.05;;;5.53;;
39740;SDS011;25426;53.478;10.190;2023-04-01T16:35:55;9.57;;;6.03;;
39740;SDS011;25426;53.478;10.190;2023-04-01T16:39:19;10.98;;;6.97;;
39740;SDS011;25426;53.478;10.190;2023-04-01T16:51:45;8.77;;;6.00;;
39740;SDS011;25426;53.478;10.190;2023-04-01T16:54:28;11.57;;;5.15;;
39740;SDS011;25426;53.478;10.190;2023-04-01T16:57:23;15.73;;;7.57;;
39740;SDS011;25426;53.478;10.190;2023-04-01T17:00:28;10.68;;;5.85;;
39740;SDS011;25426;53.478;10.190;2023-04-01T17:03:23;9.02;;;6.28;;
39740;SDS011;25426;53.478;10.190;2023-04-01T17:09:13;15.07;;;7.50;;
39740;SDS011;25426;53.478;10.190;2023-04-01T17:12:25;17.88;;;8.30;;
39740;SDS011;25426;53.478;10.190;2023-04-01T17:18:13;25.05;;;12.48;;
39740;SDS011;25426;53.478;10.190;2023-04-01T17:21:07;11.82;;;7.13;;
39740;SDS011;25426;53.478;10.190;2023-04-01T17:37:06;9.88;;;5.93;;
39740;SDS011;25426;53.478;10.190;2023-04-01T17:43:13;12.63;;;5.63;;
39740;SDS011;25426;53.478;10.190;2023-04-01T17:52:46;12.38;;;6.82;;
39740;SDS011;25426;53.478;10.190;2023-04-01T17:56:01;19.67;;;10.05;;
39740;SDS011;25426;53.478;10.190;2023-04-01T18:08:02;17.55;;;8.32;;
39740;SDS011;25426;53.478;10.190;2023-04-01T18:11:34;13.63;;;7.30;;
39740;SDS011;25426;53.478;10.190;2023-04-01T18:17:41;21.17;;;8.70;;
39740;SDS011;25426;53.478;10.190;2023-04-01T18:24:14;11.38;;;6.32;;
39740;SDS011;25426;53.478;10.190;2023-04-01T18:27:17;14.77;;;8.90;;
39740;SDS011;25426;53.478;10.190;2023-04-01T18:29:55;6.72;;;4.68;;
39740;SDS011;25426;53.478;10.190;2023-04-01T18:32:35;8.65;;;6.32;;
39740;SDS011;25426;53.478;10.190;2023-04-01T18:36:03;8.45;;;4.88;;
39740;SDS011;25426;53.478;10.190;2023-04-01T18:39:13;6.60;;;5.00;;
39740;SDS011;25426;53.478;10.190;2023-04-01T18:44:56;7.88;;;5.00;;
39740;SDS011;25426;53.478;10.190;2023-04-01T18:47:41;6.57;;;4.65;;
39740;SDS011;25426;53.478;10.190;2023-04-01T18:50:58;11.32;;;4.70;;
39740;SDS011;25426;53.478;10.190;2023-04-01T18:53:48;6.82;;;5.45;;
39740;SDS011;25426;53.478;10.190;2023-04-01T18:56:39;6.82;;;5.30;;
39740;SDS011;25426;53.478;10.190;2023-04-01T18:59:18;10.10;;;5.70;;
39740;SDS011;25426;53.478;10.190;2023-04-01T19:02:17;9.30;;;5.20;;
39740;SDS011;25426;53.478;10.190;2023-04-01T19:05:35;8.48;;;5.40;;
39740;SDS011;25426;53.478;10.190;2023-04-01T19:17:15;8.57;;;4.28;;
39740;SDS011;25426;53.478;10.190;2023-04-01T19:26:42;7.72;;;4.47;;
39740;SDS011;25426;53.478;10.190;2023-04-01T19:29:30;6.28;;;4.88;;
39740;SDS011;25426;53.478;10.190;2023-04-01T19:32:30;7.70;;;3.70;;
39740;SDS011;25426;53.478;10.190;2023-04-01T19:41:01;6.32;;;3.95;;
39740;SDS011;25426;53.478;10.190;2023-04-01T19:44:28;5.97;;;3.88;;
